Time;durP1;ratioP1;P1;durP2;ratioP2;P2;SDS_P1;SDS_P2;PMS_P1;PMS_P2;Temp;Humidity;BMP_temperature;BMP_pressure;BME280_temperature;BME280_humidity;BME280_pressure;Samples;Min_cycle;Max_cycle;Signal;HPM_P1;HPM_P2
2022/11/27 00:00:39;;;;;;;;;175.75;147.50;;;;;3.75;100.00;100834.63;6282502;20;3705569;-62
2022/11/27 00:03:08;;;;;;;;;170.75;143.00;;;;;3.62;100.00;100841.03;6280539;20;4479434;-62
2022/11/27 00:05:36;;;;;;;;;156.00;127.50;;;;;3.82;100.00;100838.06;6275704;20;1966003;-62
2022/11/27 00:08:04;;;;;;;;;154.00;119.50;;;;;3.74;100.00;100836.41;6276494;20;1958751;-61
2022/11/27 00:10:32;;;;;;;;;133.50;113.50;;;;;3.84;100.00;100837.13;6274093;20;1957680;-62
2022/11/27 00:13:00;;;;;;;;;150.00;124.00;;;;;3.67;100.00;100837.41;6280621;20;1954461;-63
2022/11/27 00:15:28;;;;;;;;;139.00;120.00;;;;;3.69;100.00;100832.94;6276654;20;1964071;-62
2022/11/27 00:17:57;;;;;;;;;144.00;117.50;;;;;3.77;100.00;100839.94;6281257;20;1957725;-62
2022/11/27 00:20:26;;;;;;;;;152.67;121.00;;;;;3.80;100.00;100839.88;6313902;20;3740860;-63
2022/11/27 00:22:58;;;;;;;;;138.33;115.67;;;;;3.85;100.00;100840.69;6279773;20;3727382;-62
2022/11/27 00:25:27;;;;;;;;;148.00;124.67;;;;;3.99;100.00;100836.03;6278547;20;3723197;-62
2022/11/27 00:27:57;;;;;;;;;144.33;119.33;;;;;3.98;100.00;100844.91;6275637;20;3734728;-62
2022/11/27 00:30:25;;;;;;;;;119.50;108.00;;;;;3.92;100.00;100839.66;6274402;20;1948291;-62
2022/11/27 00:32:55;;;;;;;;;136.25;112.50;;;;;3.85;100.00;100838.03;6281789;20;4480613;-62
2022/11/27 00:35:23;;;;;;;;;133.00;110.50;;;;;3.72;100.00;100848.84;6278676;20;1952510;-62
2022/11/27 00:37:53;;;;;;;;;89.33;61.33;;;;;3.59;100.00;100844.59;6281778;20;3677335;-62
2022/11/27 00:40:23;;;;;;;;;120.25;103.25;;;;;3.83;100.00;100839.81;6280228;20;4482652;-62
2022/11/27 00:42:54;;;;;;;;;129.75;108.75;;;;;3.72;100.00;100838.22;6284123;20;3707543;-61
2022/11/27 00:45:24;;;;;;;;;127.75;105.75;;;;;3.76;100.00;100838.16;6279219;20;4491028;-61
2022/11/27 00:47:54;;;;;;;;;114.25;98.75;;;;;3.78;100.00;100844.34;6311744;20;3687786;-62
2022/11/27 00:50:25;;;;;;;;;126.75;109.00;;;;;3.59;100.00;100841.94;6280539;20;4473262;-63
2022/11/27 00:52:53;;;;;;;;;124.00;108.00;;;;;3.67;100.00;100840.06;6277907;20;1949477;-62
2022/11/27 00:55:20;;;;;;;;;121.50;107.00;;;;;3.78;100.00;100842.53;6277725;20;1948262;-62
2022/11/27 00:57:51;;;;;;;;;132.00;107.75;;;;;3.70;100.00;100828.50;6278142;20;4476291;-62
2022/11/27 01:00:19;;;;;;;;;126.00;105.50;;;;;3.98;100.00;100844.91;6309880;20;1955590;-62
2022/11/27 01:02:50;;;;;;;;;122.75;98.00;;;;;4.07;100.00;100844.75;6277749;20;3698167;-62
2022/11/27 01:05:18;;;;;;;;;115.00;100.50;;;;;3.98;100.00;100847.56;6309488;20;1948253;-62
2022/11/27 01:07:47;;;;;;;;;113.67;98.00;;;;;3.93;100.00;100842.31;6276987;20;3692968;-62
2022/11/27 01:10:17;;;;;;;;;98.33;82.33;;;;;3.86;100.00;100845.09;6282986;20;3676396;-62
2022/11/27 01:12:49;;;;;;;;;120.00;97.50;;;;;3.72;100.00;100843.53;6281243;20;2791969;-62
2022/11/27 01:15:19;;;;;;;;;120.50;94.00;;;;;3.66;100.00;100848.94;6315640;20;4464863;-62
2022/11/27 01:17:49;;;;;;;;;109.00;94.00;;;;;3.65;100.00;100849.81;6280891;20;3684678;-62
2022/11/27 01:20:18;;;;;;;;;118.00;95.00;;;;;3.79;100.00;100854.03;6281658;20;3696092;-62
2022/11/27 01:22:49;;;;;;;;;112.25;94.25;;;;;3.95;100.00;100848.50;6280773;20;3695229;-62
2022/11/27 01:25:18;;;;;;;;;100.67;85.33;;;;;3.93;100.00;100844.97;6279129;20;3701331;-62
2022/11/27 01:27:53;;;;;;;;;111.00;93.50;;;;;3.88;100.00;100848.59;6276517;20;1943050;-62
2022/11/27 01:30:23;;;;;;;;;95.33;82.67;;;;;3.80;100.00;100846.06;6281062;20;3675287;-62
2022/11/27 01:32:52;;;;;;;;;96.67;80.00;;;;;3.92;100.00;100845.88;6282990;20;3664840;-62
2022/11/27 01:35:22;;;;;;;;;91.67;74.33;;;;;3.88;100.00;100849.47;6280816;20;3678375;-62
2022/11/27 01:37:51;;;;;;;;;88.00;65.33;;;;;3.68;100.00;100841.78;6277398;20;3662786;-62
2022/11/27 01:40:22;;;;;;;;;90.67;69.00;;;;;3.78;100.00;100841.69;6312442;20;3665935;-61
2022/11/27 01:42:51;;;;;;;;;82.33;61.33;;;;;3.83;100.00;100845.16;6277309;20;3647147;-62
2022/11/27 01:45:22;;;;;;;;;87.00;66.67;;;;;3.96;100.00;100836.06;6310079;20;3672221;-61
2022/11/27 01:48:00;;;;;;;;;88.67;70.00;;;;;3.71;100.00;100828.50;6277520;20;3684647;-61
2022/11/27 01:50:37;;;;;;;;;86.00;65.67;;;;;3.82;100.00;100836.31;6281063;20;3651352;-62
2022/11/27 01:53:17;;;;;;;;;88.33;67.00;;;;;3.81;100.00;100829.22;6276378;20;3659628;-62
2022/11/27 01:55:55;;;;;;;;;85.00;65.00;;;;;3.73;100.00;100823.16;6311062;20;3651310;-62
2022/11/27 01:58:28;;;;;;;;;85.33;66.33;;;;;3.89;100.00;100831.75;6277316;20;3655478;-62
2022/11/27 02:00:59;;;;;;;;;79.00;62.33;;;;;3.84;100.00;100834.47;6310027;20;2878455;-62
2022/11/27 02:03:29;;;;;;;;;83.67;61.67;;;;;3.91;100.00;100837.94;6308024;20;3653400;-62
2022/11/27 02:05:58;;;;;;;;;90.00;69.00;;;;;3.66;100.00;100838.31;6311582;20;3664909;-62
2022/11/27 02:08:28;;;;;;;;;77.67;60.33;;;;;3.84;100.00;100841.56;6277272;20;2879541;-62
2022/11/27 02:11:26;;;;;;;;;86.67;66.00;;;;;3.95;100.00;100839.66;6309311;20;3641914;-62
2022/11/27 02:14:34;;;;;;;;;86.00;63.67;;;;;4.10;100.00;100834.06;6279862;20;3648170;-61
2022/11/27 02:17:16;;;;;;;;;87.67;65.67;;;;;4.03;100.00;100837.75;6308120;20;3650490;-62
2022/11/27 02:20:47;;;;;;;;;80.33;61.33;;;;;3.88;100.00;100836.19;6311540;20;3630479;-63
2022/11/27 02:23:52;;;;;;;;;84.67;62.67;;;;;3.72;100.00;100834.69;6313015;20;3633684;-61
2022/11/27 02:26:49;;;;;;;;;81.67;63.00;;;;;3.89;100.00;100835.28;6279279;20;3647180;-62
2022/11/27 02:29:40;;;;;;;;;82.67;60.00;;;;;3.84;100.00;100836.25;6277763;20;3630481;-62
2022/11/27 02:32:51;;;;;;;;;85.00;63.33;;;;;3.82;100.00;100830.09;6308211;20;3649236;-62
2022/11/27 02:35:48;;;;;;;;;56.33;45.33;;;;;3.82;100.00;100843.38;6309951;20;3579436;-62
2022/11/27 02:38:31;;;;;;;;;66.33;51.67;;;;;4.02;100.00;100833.31;6277189;20;2871197;-62
2022/11/27 02:41:32;;;;;;;;;87.00;66.00;;;;;3.95;100.00;100845.84;6309950;20;3655491;-61
2022/11/27 02:44:05;;;;;;;;;90.33;66.67;;;;;4.06;100.00;100844.78;6279512;20;3677392;-62
2022/11/27 02:46:36;;;;;;;;;86.33;62.33;;;;;4.22;100.00;100848.06;6276687;20;3652344;-63
2022/11/27 02:49:12;;;;;;;;;93.33;69.33;;;;;4.10;100.00;100854.44;6276261;20;3681519;-61
2022/11/27 02:51:54;;;;;;;;;89.67;69.67;;;;;4.22;100.00;100866.69;6274471;20;3678452;-62
2022/11/27 02:54:29;;;;;;;;;85.33;63.67;;;;;4.14;100.00;100861.47;6276518;20;3635637;-62
2022/11/27 02:57:02;;;;;;;;;87.00;66.00;;;;;3.80;100.00;100854.03;6309173;20;3661686;-62
2022/11/27 02:59:36;;;;;;;;;93.67;69.00;;;;;3.97;100.00;100845.78;6307679;20;3674244;-62
2022/11/27 03:02:16;;;;;;;;;90.00;66.67;;;;;4.00;100.00;100839.56;6277361;20;3675284;-62
2022/11/27 03:04:55;;;;;;;;;85.67;67.67;;;;;3.99;100.00;100836.03;6277372;20;3651338;-62
2022/11/27 03:07:39;;;;;;;;;83.33;65.67;;;;;4.20;100.00;100847.22;6272695;20;3649193;-62
2022/11/27 03:10:54;;;;;;;;;86.67;67.67;;;;;4.01;100.00;100847.50;6309943;20;3652306;-62
2022/11/27 03:13:25;;;;;;;;;85.33;63.00;;;;;3.81;100.00;100839.84;6277063;20;3638815;-62
2022/11/27 03:16:06;;;;;;;;;86.67;66.67;;;;;4.04;100.00;100855.44;6310579;20;3652472;-62
2022/11/27 03:19:02;;;;;;;;;79.67;61.00;;;;;4.10;100.00;100852.66;6274376;20;3634687;-61
2022/11/27 03:21:38;;;;;;;;;81.33;63.00;;;;;4.07;100.00;100852.72;6307720;20;3628433;-62
2022/11/27 03:24:09;;;;;;;;;75.00;57.33;;;;;3.96;100.00;100857.34;6305213;20;3621128;-62
2022/11/27 03:26:40;;;;;;;;;82.67;63.33;;;;;3.91;100.00;100859.19;6305499;20;3635737;-61
2022/11/27 03:29:34;;;;;;;;;83.00;65.33;;;;;3.86;100.00;100861.91;6272954;20;3646219;-62
2022/11/27 03:32:04;;;;;;;;;90.00;67.00;;;;;4.15;100.00;100860.56;6307291;20;3663284;-62
2022/11/27 03:34:35;;;;;;;;;85.67;64.67;;;;;4.13;100.00;100865.94;6279200;20;3665845;-61
2022/11/27 03:37:05;;;;;;;;;88.00;65.67;;;;;4.17;100.00;100862.31;6275305;20;3663773;-62
2022/11/27 03:39:36;;;;;;;;;85.67;68.00;;;;;3.87;100.00;100858.38;6273745;20;3648177;-62
2022/11/27 03:42:17;;;;;;;;;90.33;67.67;;;;;3.85;100.00;100854.84;6272560;20;3669107;-62
2022/11/27 03:45:16;;;;;;;;;79.33;58.33;;;;;3.86;100.00;100866.34;6275951;20;3651280;-59
2022/11/27 03:48:16;;;;;;;;;86.00;66.00;;;;;3.87;100.00;100858.38;6272715;20;3657546;-62
2022/11/27 03:51:39;;;;;;;;;84.33;59.67;;;;;3.72;100.00;100859.47;6310718;20;3653388;-62
2022/11/27 03:54:57;;;;;;;;;88.33;63.33;;;;;3.87;100.00;100852.16;6303986;20;3661675;-61
2022/11/27 03:57:40;;;;;;;;;119.00;90.75;;;;;3.91;100.00;100859.19;6272302;20;3704504;-62
2022/11/27 04:00:11;;;;;;;;;101.67;85.67;;;;;3.99;100.00;100859.94;6307442;20;3690918;-62
2022/11/27 04:02:47;;;;;;;;;90.00;67.67;;;;;3.97;100.00;100864.38;6277137;20;3661862;-62
2022/11/27 04:05:18;;;;;;;;;83.67;64.00;;;;;4.09;100.00;100863.34;6281386;20;3642956;-61
2022/11/27 04:07:48;;;;;;;;;86.33;64.33;;;;;4.14;100.00;100862.34;6312933;20;3656493;-61
2022/11/27 04:10:18;;;;;;;;;92.00;71.33;;;;;4.09;100.00;100866.00;6282832;20;3669149;-62
2022/11/27 04:12:47;;;;;;;;;95.00;70.00;;;;;4.02;100.00;100872.31;6280292;20;3676289;-62
2022/11/27 04:15:17;;;;;;;;;99.00;75.75;;;;;4.08;100.00;100872.19;6284903;20;4456554;-61
2022/11/27 04:17:48;;;;;;;;;110.25;93.25;;;;;4.03;100.00;100863.41;6277028;20;3687862;-61
2022/11/27 04:20:18;;;;;;;;;105.25;90.25;;;;;4.01;100.00;100866.13;6313546;20;3686703;-62
2022/11/27 04:22:48;;;;;;;;;99.67;79.33;;;;;4.05;100.00;100867.81;6279465;20;3683638;-61
2022/11/27 04:25:18;;;;;;;;;127.00;109.50;;;;;4.02;100.00;100867.84;6282572;20;4480500;-61
2022/11/27 04:27:48;;;;;;;;;145.50;111.50;;;;;4.03;100.00;100864.31;6280984;20;4479416;-61
2022/11/27 04:30:18;;;;;;;;;131.33;104.00;;;;;3.87;100.00;100868.09;6280872;20;3717946;-62
2022/11/27 04:32:48;;;;;;;;;85.33;61.33;;;;;4.01;100.00;100866.13;6278713;20;3650312;-62
2022/11/27 04:35:18;;;;;;;;;91.00;74.00;;;;;4.07;100.00;100867.78;6310177;20;3673190;-62
2022/11/27 04:37:47;;;;;;;;;87.00;72.67;;;;;4.00;100.00;100858.16;6282780;20;3663835;-62
2022/11/27 04:40:17;;;;;;;;;95.33;77.67;;;;;4.11;100.00;100851.78;6279686;20;3678408;-61
2022/11/27 04:42:47;;;;;;;;;87.67;64.67;;;;;4.01;100.00;100851.97;6279338;20;3659629;-62
2022/11/27 04:45:17;;;;;;;;;90.33;72.00;;;;;4.03;100.00;100859.00;6277050;20;3663783;-62
2022/11/27 04:47:46;;;;;;;;;91.00;74.00;;;;;4.06;100.00;100855.41;6276497;20;3692986;-62
2022/11/27 04:50:16;;;;;;;;;91.33;71.67;;;;;4.14;100.00;100854.38;6278608;20;3666977;-61
2022/11/27 04:52:45;;;;;;;;;93.33;71.00;;;;;4.03;100.00;100853.69;6279245;20;3679523;-61
2022/11/27 04:55:15;;;;;;;;;84.67;68.00;;;;;3.97;100.00;100853.75;6279049;20;3657617;-61
2022/11/27 04:57:45;;;;;;;;;89.67;71.67;;;;;4.13;100.00;100859.72;6277881;20;3687749;-61
2022/11/27 05:00:16;;;;;;;;;92.33;74.00;;;;;4.11;100.00;100854.44;6280857;20;3687793;-62
2022/11/27 05:02:45;;;;;;;;;94.00;74.00;;;;;4.10;100.00;100855.31;6279162;20;3663905;-62
2022/11/27 05:05:16;;;;;;;;;94.33;73.00;;;;;3.95;100.00;100855.59;6276918;20;3671102;-62
2022/11/27 05:07:45;;;;;;;;;99.67;82.33;;;;;3.93;100.00;100846.75;6277658;20;3694023;-62
2022/11/27 05:10:15;;;;;;;;;95.33;77.33;;;;;4.04;100.00;100839.50;6281023;20;3650327;-62
2022/11/27 05:12:45;;;;;;;;;94.67;79.67;;;;;4.10;100.00;100860.63;6276700;20;3653385;-62
2022/11/27 05:15:14;;;;;;;;;87.33;69.67;;;;;4.14;100.00;100865.00;6278749;20;3675415;-62
2022/11/27 05:17:44;;;;;;;;;92.00;73.67;;;;;4.23;100.00;100860.44;6278399;20;3674457;-62
2022/11/27 05:20:14;;;;;;;;;95.00;71.33;;;;;4.15;100.00;100858.78;6278462;20;3672133;-62
2022/11/27 05:22:44;;;;;;;;;89.00;71.00;;;;;4.22;100.00;100859.56;6279000;20;3671102;-62
2022/11/27 05:25:14;;;;;;;;;92.33;71.00;;;;;4.10;100.00;100850.00;6278961;20;3675455;-62
2022/11/27 05:27:44;;;;;;;;;90.25;69.00;;;;;4.21;100.00;100852.47;6280963;20;4433583;-62
2022/11/27 05:30:13;;;;;;;;;96.00;76.67;;;;;4.06;100.00;100848.31;6311355;20;3679449;-62
2022/11/27 05:32:41;;;;;;;;;76.00;58.00;;;;;4.00;100.00;100844.88;6275397;20;2500316;-62
2022/11/27 05:35:11;;;;;;;;;87.67;69.67;;;;;4.13;100.00;100851.72;6278994;20;3670041;-61
2022/11/27 05:37:40;;;;;;;;;87.67;64.33;;;;;3.93;100.00;100854.72;6277222;20;3651370;-62
2022/11/27 05:40:10;;;;;;;;;81.33;61.00;;;;;4.06;100.00;100853.63;6312316;20;3648232;-62
2022/11/27 05:42:40;;;;;;;;;90.67;71.33;;;;;4.09;100.00;100864.22;6313769;20;3675258;-62
2022/11/27 05:45:10;;;;;;;;;90.75;64.75;;;;;3.80;100.00;100858.47;6285484;20;3657597;-62
2022/11/27 05:47:39;;;;;;;;;84.33;63.67;;;;;3.97;100.00;100864.38;6310167;20;3634654;-62
2022/11/27 05:50:09;;;;;;;;;87.33;63.67;;;;;3.97;100.00;100865.25;6307823;20;3646075;-61
2022/11/27 05:52:39;;;;;;;;;84.00;63.00;;;;;3.76;100.00;100859.41;6280391;20;3658552;-62
2022/11/27 05:55:08;;;;;;;;;78.33;55.33;;;;;3.86;100.00;100863.69;6277904;20;3641923;-62
2022/11/27 05:57:38;;;;;;;;;84.67;62.67;;;;;4.00;100.00;100874.09;6309983;20;3664928;-61
2022/11/27 06:00:09;;;;;;;;;79.67;60.00;;;;;4.12;100.00;100874.78;6275208;20;3623301;-62
2022/11/27 06:02:38;;;;;;;;;86.00;61.00;;;;;4.06;100.00;100879.34;6311001;20;3645029;-62
2022/11/27 06:05:08;;;;;;;;;87.33;63.33;;;;;4.11;100.00;100875.69;6310930;20;3657577;-62
2022/11/27 06:07:38;;;;;;;;;81.00;60.33;;;;;4.25;100.00;100870.16;6310551;20;3645043;-62
2022/11/27 06:10:08;;;;;;;;;74.33;56.67;;;;;4.17;100.00;100869.41;6312914;20;3628431;-62
2022/11/27 06:12:37;;;;;;;;;83.00;60.00;;;;;4.07;100.00;100873.97;6310252;20;3650390;-62
2022/11/27 06:15:08;;;;;;;;;80.00;60.00;;;;;4.21;100.00;100875.53;6278718;20;3640988;-62
2022/11/27 06:17:37;;;;;;;;;81.67;61.67;;;;;4.15;100.00;100874.72;6309517;20;3646081;-61
2022/11/27 06:20:08;;;;;;;;;85.33;61.67;;;;;4.14;100.00;100873.00;6311254;20;3646085;-62
2022/11/27 06:22:37;;;;;;;;;85.33;60.67;;;;;4.16;100.00;100863.22;6309531;20;3638804;-62
2022/11/27 06:25:08;;;;;;;;;80.33;58.33;;;;;4.25;100.00;100864.84;6308102;20;3632540;-62
2022/11/27 06:27:37;;;;;;;;;81.00;60.00;;;;;4.13;100.00;100859.72;6306543;20;3642976;-61
2022/11/27 06:30:08;;;;;;;;;81.67;60.33;;;;;4.21;100.00;100864.91;6309112;20;3646094;-62
2022/11/27 06:32:38;;;;;;;;;85.00;62.00;;;;;4.30;100.00;100862.97;6310851;20;3654380;-62
2022/11/27 06:35:09;;;;;;;;;111.25;88.50;;;;;4.27;100.00;100864.81;6313688;20;3692007;-62
2022/11/27 06:37:39;;;;;;;;;86.33;62.00;;;;;4.13;100.00;100873.00;6308601;20;3652427;-61
2022/11/27 06:40:09;;;;;;;;;92.67;64.33;;;;;3.95;100.00;100869.75;6279020;20;3660643;-61
2022/11/27 06:42:39;;;;;;;;;89.67;63.67;;;;;4.15;100.00;100872.06;6278382;20;3665874;-62
2022/11/27 06:45:09;;;;;;;;;84.00;61.67;;;;;4.27;100.00;100873.66;6310456;20;3658596;-62
2022/11/27 06:47:39;;;;;;;;;105.00;83.67;;;;;4.12;100.00;100874.78;6306417;20;3688791;-62
2022/11/27 06:50:09;;;;;;;;;300.00;197.00;;;;;4.27;100.00;100876.31;6279776;20;4488795;-62
2022/11/27 06:52:38;;;;;;;;;85.00;64.00;;;;;4.43;100.00;100887.59;6279344;20;3660050;-62
2022/11/27 06:55:09;;;;;;;;;80.67;59.67;;;;;4.36;100.00;100881.47;6277963;20;3643996;-62
2022/11/27 06:57:38;;;;;;;;;86.00;63.00;;;;;4.32;100.00;100886.91;6310135;20;3659593;-62
2022/11/27 07:00:09;;;;;;;;;97.00;78.33;;;;;4.25;100.00;100890.53;6278598;20;3670117;-62
2022/11/27 07:02:38;;;;;;;;;98.00;75.33;;;;;4.33;100.00;100883.31;6274960;20;3672134;-61
2022/11/27 07:05:08;;;;;;;;;91.00;70.67;;;;;4.43;100.00;100890.25;6279220;20;3670092;-62
2022/11/27 07:07:38;;;;;;;;;88.33;68.00;;;;;4.44;100.00;100891.97;6272819;20;3659973;-62
2022/11/27 07:10:12;;;;;;;;;81.67;60.00;;;;;4.46;100.00;100884.88;6279314;20;3646498;-62
2022/11/27 07:12:41;;;;;;;;;80.00;60.00;;;;;4.42;100.00;100887.59;6312798;20;3632570;-62
2022/11/27 07:15:11;;;;;;;;;88.67;65.00;;;;;3.97;100.00;100885.66;6308691;20;3648189;-62
2022/11/27 07:17:40;;;;;;;;;93.67;71.33;;;;;4.02;100.00;100886.47;6274259;20;3682566;-62
2022/11/27 07:20:11;;;;;;;;;109.67;87.67;;;;;4.34;100.00;100888.59;6278181;20;3697218;-62
2022/11/27 07:22:41;;;;;;;;;93.67;72.33;;;;;4.38;100.00;100892.09;6277503;20;3672122;-62
2022/11/27 07:25:10;;;;;;;;;94.00;74.33;;;;;4.38;100.00;100886.78;6277187;20;3654465;-62
2022/11/27 07:27:40;;;;;;;;;64.33;54.00;;;;;4.50;100.00;100894.56;6275761;20;2876317;-62
2022/11/27 07:30:10;;;;;;;;;85.00;62.33;;;;;4.52;100.00;100890.06;6311226;20;3651293;-62
2022/11/27 07:32:40;;;;;;;;;88.00;61.67;;;;;4.53;100.00;100883.88;6274007;20;3647132;-62
2022/11/27 07:35:10;;;;;;;;;86.33;65.33;;;;;4.47;100.00;100878.63;6310340;20;3645065;-62
2022/11/27 07:37:40;;;;;;;;;91.00;73.67;;;;;4.29;100.00;100877.19;6276971;20;3659641;-62
2022/11/27 07:40:10;;;;;;;;;142.75;113.75;;;;;4.50;100.00;100880.34;6283638;20;4485674;-62
2022/11/27 07:42:39;;;;;;;;;87.00;73.00;;;;;4.46;100.00;100882.19;6279097;20;3652342;-61
2022/11/27 07:45:10;;;;;;;;;91.00;76.33;;;;;4.22;100.00;100872.00;6283765;20;3680456;-62
2022/11/27 07:47:39;;;;;;;;;120.00;94.50;;;;;4.57;100.00;100874.91;6274676;20;1948381;-61
2022/11/27 07:50:10;;;;;;;;;109.75;91.00;;;;;4.42;100.00;100877.84;6282227;20;3699324;-61
2022/11/27 07:52:41;;;;;;;;;140.25;100.25;;;;;4.34;100.00;100869.09;6282967;20;4483549;-62
2022/11/27 07:55:09;;;;;;;;;142.50;113.00;;;;;4.48;100.00;100872.44;6277212;20;1958871;-62
2022/11/27 07:57:39;;;;;;;;;84.33;64.00;;;;;4.43;100.00;100879.59;6279748;20;3651295;-63
2022/11/27 08:00:10;;;;;;;;;81.33;54.00;;;;;4.35;100.00;100870.88;6314207;20;3647111;-61
2022/11/27 08:02:40;;;;;;;;;85.67;61.33;;;;;4.30;100.00;100883.38;6278398;20;3642031;-62
2022/11/27 08:05:09;;;;;;;;;89.67;73.33;;;;;4.22;100.00;100879.97;6315351;20;3675246;-62
2022/11/27 08:07:41;;;;;;;;;87.67;68.67;;;;;4.16;100.00;100883.56;6283828;20;3663807;-62
2022/11/27 08:10:11;;;;;;;;;93.67;74.33;;;;;4.20;100.00;100887.09;6285251;20;3669079;-62
2022/11/27 08:12:41;;;;;;;;;113.67;91.33;;;;;4.94;100.00;100895.50;6276569;20;3696099;-62
2022/11/27 08:15:12;;;;;;;;;105.25;84.00;;;;;5.00;100.00;100887.44;6283608;20;3695119;-61
2022/11/27 08:17:41;;;;;;;;;96.00;75.67;;;;;4.95;100.00;100891.97;6278285;20;3689833;-61
2022/11/27 08:20:12;;;;;;;;;152.67;117.00;;;;;4.47;100.00;100894.59;6283109;20;4372213;-61
2022/11/27 08:22:42;;;;;;;;;95.00;72.33;;;;;4.42;100.00;100901.75;6312755;20;3660669;-61
2022/11/27 08:25:11;;;;;;;;;95.33;83.00;;;;;4.60;100.00;100898.78;6281958;20;3652331;-62
2022/11/27 08:27:42;;;;;;;;;90.67;63.67;;;;;4.67;100.00;100906.69;6280607;20;3651354;-61
2022/11/27 08:30:12;;;;;;;;;88.33;67.33;;;;;4.68;100.00;100906.63;6283703;20;3674326;-61
2022/11/27 08:32:42;;;;;;;;;82.67;61.00;;;;;4.62;100.00;100912.94;6280891;20;3654831;-61
2022/11/27 08:35:12;;;;;;;;;95.67;73.00;;;;;4.74;100.00;100911.88;6317152;20;3676426;-60
2022/11/27 08:37:42;;;;;;;;;83.33;60.67;;;;;4.76;100.00;100909.16;6282554;20;3623201;-61
2022/11/27 08:40:12;;;;;;;;;145.25;112.75;;;;;4.47;100.00;100913.19;6315203;20;4488875;-61
2022/11/27 08:42:42;;;;;;;;;99.50;76.25;;;;;4.57;100.00;100919.25;6283422;20;4423189;-61
2022/11/27 08:45:11;;;;;;;;;109.25;84.75;;;;;4.65;100.00;100911.16;6319846;20;4450623;-61
2022/11/27 08:47:42;;;;;;;;;125.75;103.75;;;;;4.69;100.00;100923.50;6279271;20;4491110;-61
2022/11/27 08:50:12;;;;;;;;;106.25;80.25;;;;;4.79;100.00;100915.31;6280838;20;3709798;-61
2022/11/27 08:52:42;;;;;;;;;90.33;68.67;;;;;4.74;100.00;100918.94;6280022;20;3664911;-61
2022/11/27 08:55:11;;;;;;;;;97.67;82.67;;;;;4.52;100.00;100915.78;6282818;20;3664847;-62
2022/11/27 08:57:41;;;;;;;;;86.33;67.33;;;;;4.73;100.00;100914.53;6281258;20;3652373;-63
2022/11/27 09:00:12;;;;;;;;;92.33;69.67;;;;;4.67;100.00;100914.66;6281588;20;3665867;-62
2022/11/27 09:02:41;;;;;;;;;81.67;57.67;;;;;4.89;100.00;100924.00;6278727;20;3651276;-60
2022/11/27 09:05:11;;;;;;;;;92.67;68.00;;;;;4.81;100.00;100915.28;6280103;20;3664889;-61
2022/11/27 09:07:40;;;;;;;;;113.67;87.33;;;;;4.79;100.00;100920.66;6278852;20;3705446;-61
2022/11/27 09:10:11;;;;;;;;;136.75;100.25;;;;;4.93;100.00;100919.50;6280909;20;3707641;-60
2022/11/27 09:12:43;;;;;;;;;94.67;73.67;;;;;4.92;100.00;100915.06;6312775;20;3679814;-61
2022/11/27 09:15:13;;;;;;;;;108.33;89.67;;;;;4.89;100.00;100918.66;6284509;20;3677346;-61
2022/11/27 09:17:43;;;;;;;;;89.67;64.33;;;;;4.77;100.00;100917.13;6279813;20;3665867;-60
2022/11/27 09:20:15;;;;;;;;;89.00;64.67;;;;;4.80;100.00;100919.72;6285198;20;3657543;-61
2022/11/27 09:22:45;;;;;;;;;80.00;56.00;;;;;4.71;100.00;100927.84;6281824;20;3667456;-61
2022/11/27 09:25:14;;;;;;;;;77.33;58.67;;;;;4.87;100.00;100927.59;6282378;20;3635816;-60
2022/11/27 09:27:44;;;;;;;;;94.67;69.00;;;;;4.87;100.00;100928.50;6314783;20;3677326;-61
2022/11/27 09:30:14;;;;;;;;;89.00;67.00;;;;;5.00;100.00;100935.34;6282828;20;3676314;-61
2022/11/27 09:32:43;;;;;;;;;89.25;64.25;;;;;5.21;100.00;100931.41;6282254;20;4420026;-61
2022/11/27 09:35:13;;;;;;;;;74.00;56.67;;;;;4.92;100.00;100931.91;6313919;20;2892185;-60
2022/11/27 09:37:43;;;;;;;;;80.00;60.00;;;;;4.99;100.00;100928.25;6310631;20;3629438;-60
2022/11/27 09:40:17;;;;;;;;;76.67;58.00;;;;;4.41;100.00;100926.59;6315238;20;3637745;-62
2022/11/27 09:43:07;;;;;;;;;81.67;61.67;;;;;4.77;100.00;100925.09;6312091;20;3640953;-60
2022/11/27 09:45:49;;;;;;;;;77.33;56.00;;;;;4.80;100.00;100922.38;6313879;20;3629029;-61
2022/11/27 09:48:33;;;;;;;;;73.67;52.67;;;;;4.77;100.00;100921.56;6277644;20;3651379;-60
2022/11/27 09:51:32;;;;;;;;;80.00;58.67;;;;;4.93;100.00;100915.06;6311800;20;3633570;-61
2022/11/27 09:54:27;;;;;;;;;78.67;58.33;;;;;4.68;100.00;100914.63;6312779;20;3637827;-61
2022/11/27 09:56:58;;;;;;;;;73.33;55.67;;;;;4.74;100.00;100913.63;6312503;20;3630597;-61
2022/11/27 09:59:49;;;;;;;;;74.33;54.00;;;;;5.26;100.00;100909.97;6311656;20;3615941;-61
2022/11/27 10:02:41;;;;;;;;;70.67;49.00;;;;;5.31;100.00;100908.09;6313839;20;3644039;-61
2022/11/27 10:05:26;;;;;;;;;75.00;52.33;;;;;4.99;100.00;100906.09;6313216;20;3654470;-61
2022/11/27 10:08:25;;;;;;;;;72.67;50.67;;;;;5.36;100.00;100903.56;6310880;20;3646156;-61
2022/11/27 10:11:22;;;;;;;;;73.00;51.33;;;;;5.38;100.00;100899.09;6314421;20;3651287;-61
2022/11/27 10:14:19;;;;;;;;;68.67;53.00;;;;;4.87;100.00;100901.88;6282465;20;3641904;-61
2022/11/27 10:17:27;;;;;;;;;67.67;51.00;;;;;4.77;100.00;100895.84;6315064;20;3630473;-62
2022/11/27 10:20:18;;;;;;;;;70.67;55.67;;;;;5.00;100.00;100894.50;6314183;20;3631554;-61
2022/11/27 10:23:42;;;;;;;;;79.33;57.00;;;;;4.67;100.00;100893.38;6313945;20;3640917;-61
2022/11/27 10:26:43;;;;;;;;;71.67;49.67;;;;;5.14;100.00;100880.97;6313834;20;3653401;-61
2022/11/27 10:29:38;;;;;;;;;80.00;56.00;;;;;5.02;100.00;100882.94;6278058;20;3654938;-61
2022/11/27 10:32:26;;;;;;;;;69.33;48.33;;;;;4.96;100.00;100891.03;6276462;20;3630476;-61
2022/11/27 10:35:21;;;;;;;;;70.00;47.67;;;;;5.06;100.00;100879.31;6311520;20;3637794;-61
2022/11/27 10:38:08;;;;;;;;;68.67;52.00;;;;;4.97;100.00;100889.25;6310960;20;3641963;-60
2022/11/27 10:40:51;;;;;;;;;68.00;52.67;;;;;5.21;100.00;100882.56;6311144;20;3624346;-60
2022/11/27 10:43:24;;;;;;;;;78.50;57.75;;;;;5.55;100.00;100881.88;6315267;20;3637757;-61
2022/11/27 10:46:10;;;;;;;;;69.67;50.67;;;;;5.52;100.00;100884.59;6311416;20;3644184;-61
2022/11/27 10:48:40;;;;;;;;;74.00;51.33;;;;;5.37;100.00;100880.47;6311598;20;3646116;-60
2022/11/27 10:51:20;;;;;;;;;60.00;45.00;;;;;5.57;100.00;100877.38;6277620;20;3629530;-60
2022/11/27 10:53:53;;;;;;;;;59.33;46.67;;;;;5.02;100.00;100880.28;6312499;20;3610728;-61
2022/11/27 10:56:54;;;;;;;;;61.00;43.50;;;;;5.18;100.00;100875.53;6310083;20;2873283;-60
2022/11/27 10:59:32;;;;;;;;;39.50;19.50;;;;;5.25;100.00;100878.94;6278789;20;2848189;-60
2022/11/27 11:02:04;;;;;;;;;50.50;42.50;;;;;5.56;100.00;100875.66;6280805;20;2858748;-60
2022/11/27 11:04:34;;;;;;;;;20.00;14.00;;;;;5.62;100.00;100875.50;6281580;20;2798212;-60
2022/11/27 11:07:28;;;;;;;;;86.33;59.67;;;;;5.53;100.00;100873.03;6283657;20;3652393;-60
2022/11/27 11:09:58;;;;;;;;;73.33;53.33;;;;;5.39;100.00;100874.19;6280298;20;3630520;-61
2022/11/27 11:12:27;;;;;;;;;65.67;45.67;;;;;5.60;100.00;100874.66;6313598;20;3614990;-60
2022/11/27 11:15:00;;;;;;;;;72.33;45.67;;;;;5.50;100.00;100872.22;6319330;20;3655493;-60
2022/11/27 11:17:33;;;;;;;;;66.33;48.67;;;;;5.16;100.00;100872.03;6317550;20;3630493;-60
2022/11/27 11:20:33;;;;;;;;;64.00;48.33;;;;;5.49;100.00;100864.25;6317737;20;3646140;-60
2022/11/27 11:23:05;;;;;;;;;74.67;53.67;;;;;5.49;100.00;100862.44;6312502;20;3641990;-60
2022/11/27 11:25:35;;;;;;;;;81.00;59.67;;;;;5.66;100.00;100863.84;6314863;20;3626391;-60